Airfield :
LOGIN :

Register | Disclaimer

   EN    FR    IT 

 










Legend :    VFR   Marginal VFR   IFR   Intensive IFR   Very Intensive IFR
Visi :
Ceiling :
>= 8 km
>= 3000ft
5 to 8 km
1000 to 3000 ft
1500m to 5 km
500 to 1000 ft
800 to 1500m
200 to 500 ft
< 800m
< 200 ft
Symbols :   Thunderstorms  Fog  Heavy snow  Heavy precipitations  Wind > 20 kt
SIGMETs :     Misc.  Thunderstorms  Icing  Turbulence  Mountain Waves  Volcanic Ashes






- Airport Elevation : 32 ft
- IATA code : LKZ


EGUL - RAF Lakenheath

CURRENT METAR :
  • 070755Z AUTO 22015KT 9999 CLR 13/13 A3008 RMK AO2 SLPNO T01330131 $

EXPIRED METARs :
  • 070655Z AUTO 21014KT 9999 CLR 13/12 A3008 RMK AO2 SLPNO T01260124 $
  • 070555Z 21013KT 9999 SCT030 12/12 A3008 RMK AO2A SLPNO T01200118 10127 20120 57019 $

TAF AMD TAF EGUL
Valid from the 07 at 06:00 until the 08 at 11:00 UTC


070600Z 0706/0811 20010G15KT 9999 FEW020 QNH3005INS
BECMG 0710/0711 22018G28KT 9999 FEW020 BKN030 510003 QNH2991INS
BECMG 0717/0718 25010G15KT 9999 SCT010 BKN020 QNH2993INS
TEMPO 0718/0723 8000 -SHRA
BECMG 0722/0723 27010KT 9999 SCT020 BKN030 QNH2999INS TX19/0713Z TN08/0804Z LAST NO AMDS AFT 0706 NEXT 1105



MET'MAP, your aeronautical weather chart ! - Copyright ORBIFLY December 2007 - Disclaimer

ORBIFLY MET'MAP TEAM :

Programming & Development : Alexandra Zaïnal
Original concept : Baudouin d'Aumeries
Technical & hardware support : Manuel Goepfert
Assistance : Marc-Olivier Méhu




SOURCES & CREDITS :

   NOAA